sensor_id;sensor_type;location;lat;lon;timestamp;P1;durP1;ratioP1;P2;durP2;ratioP2
1320;SDS011;653;51.480;11.992;2023-03-11T00:00:30;9.63;;;4.70;;
1320;SDS011;653;51.480;11.992;2023-03-11T00:02:57;6.50;;;4.80;;
1320;SDS011;653;51.480;11.992;2023-03-11T00:05:28;6.57;;;4.03;;
1320;SDS011;653;51.480;11.992;2023-03-11T00:07:55;7.37;;;5.47;;
1320;SDS011;653;51.480;11.992;2023-03-11T00:10:25;8.00;;;5.70;;
1320;SDS011;653;51.480;11.992;2023-03-11T00:12:52;7.10;;;4.90;;
1320;SDS011;653;51.480;11.992;2023-03-11T00:15:18;8.30;;;5.90;;
1320;SDS011;653;51.480;11.992;2023-03-11T00:17:43;7.90;;;5.20;;
1320;SDS011;653;51.480;11.992;2023-03-11T00:20:14;6.03;;;4.87;;
1320;SDS011;653;51.480;11.992;2023-03-11T00:22:43;7.80;;;5.40;;
1320;SDS011;653;51.480;11.992;2023-03-11T00:25:09;7.50;;;5.03;;
1320;SDS011;653;51.480;11.992;2023-03-11T00:27:36;8.87;;;6.50;;
1320;SDS011;653;51.480;11.992;2023-03-11T00:30:01;11.47;;;8.07;;
1320;SDS011;653;51.480;11.992;2023-03-11T00:32:27;9.00;;;6.60;;
1320;SDS011;653;51.480;11.992;2023-03-11T00:34:53;9.13;;;7.27;;
1320;SDS011;653;51.480;11.992;2023-03-11T00:37:18;13.60;;;8.53;;
1320;SDS011;653;51.480;11.992;2023-03-11T00:39:43;8.70;;;6.90;;
1320;SDS011;653;51.480;11.992;2023-03-11T00:42:10;9.97;;;7.70;;
1320;SDS011;653;51.480;11.992;2023-03-11T00:44:35;9.80;;;8.33;;
1320;SDS011;653;51.480;11.992;2023-03-11T00:47:01;13.93;;;8.60;;
1320;SDS011;653;51.480;11.992;2023-03-11T00:49:26;12.70;;;8.93;;
1320;SDS011;653;51.480;11.992;2023-03-11T00:51:51;11.10;;;8.33;;
1320;SDS011;653;51.480;11.992;2023-03-11T00:54:17;13.73;;;8.93;;
1320;SDS011;653;51.480;11.992;2023-03-11T00:56:42;9.90;;;8.03;;
1320;SDS011;653;51.480;11.992;2023-03-11T00:59:08;12.53;;;8.50;;
1320;SDS011;653;51.480;11.992;2023-03-11T01:01:33;16.80;;;10.60;;
1320;SDS011;653;51.480;11.992;2023-03-11T01:03:59;12.83;;;9.00;;
1320;SDS011;653;51.480;11.992;2023-03-11T01:06:24;12.10;;;8.67;;
1320;SDS011;653;51.480;11.992;2023-03-11T01:08:49;12.50;;;8.30;;
1320;SDS011;653;51.480;11.992;2023-03-11T01:11:15;13.90;;;9.27;;
1320;SDS011;653;51.480;11.992;2023-03-11T01:13:40;11.97;;;9.10;;
1320;SDS011;653;51.480;11.992;2023-03-11T01:16:05;11.90;;;8.80;;
1320;SDS011;653;51.480;11.992;2023-03-11T01:18:33;12.70;;;9.13;;
1320;SDS011;653;51.480;11.992;2023-03-11T01:20:58;12.67;;;8.63;;
1320;SDS011;653;51.480;11.992;2023-03-11T01:23:24;12.83;;;9.03;;
1320;SDS011;653;51.480;11.992;2023-03-11T01:25:49;11.77;;;8.40;;
1320;SDS011;653;51.480;11.992;2023-03-11T01:28:15;10.80;;;7.93;;
1320;SDS011;653;51.480;11.992;2023-03-11T01:34:05;16.60;;;9.17;;
1320;SDS011;653;51.480;11.992;2023-03-11T01:36:49;12.53;;;8.67;;
1320;SDS011;653;51.480;11.992;2023-03-11T01:39:33;17.90;;;10.07;;
1320;SDS011;653;51.480;11.992;2023-03-11T01:42:18;13.30;;;9.00;;
1320;SDS011;653;51.480;11.992;2023-03-11T01:45:10;14.47;;;9.83;;
1320;SDS011;653;51.480;11.992;2023-03-11T01:48:07;15.27;;;10.70;;
1320;SDS011;653;51.480;11.992;2023-03-11T01:50:52;15.27;;;10.27;;
1320;SDS011;653;51.480;11.992;2023-03-11T01:53:36;15.07;;;10.33;;
1320;SDS011;653;51.480;11.992;2023-03-11T13:30:19;7.93;;;5.90;;
1320;SDS011;653;51.480;11.992;2023-03-11T13:42:56;6.80;;;5.23;;
1320;SDS011;653;51.480;11.992;2023-03-11T13:45:49;5.50;;;4.17;;
1320;SDS011;653;51.480;11.992;2023-03-11T13:48:55;5.10;;;4.30;;
1320;SDS011;653;51.480;11.992;2023-03-11T13:51:46;5.57;;;4.40;;
1320;SDS011;653;51.480;11.992;2023-03-11T13:54:34;4.60;;;4.17;;
1320;SDS011;653;51.480;11.992;2023-03-11T13:57:27;6.10;;;3.40;;
1320;SDS011;653;51.480;11.992;2023-03-11T14:00:15;4.63;;;4.13;;
1320;SDS011;653;51.480;11.992;2023-03-11T14:03:10;6.10;;;3.97;;
1320;SDS011;653;51.480;11.992;2023-03-11T14:08:52;5.37;;;3.90;;
1320;SDS011;653;51.480;11.992;2023-03-11T14:11:37;4.63;;;4.20;;
1320;SDS011;653;51.480;11.992;2023-03-11T14:17:19;4.30;;;3.90;;
1320;SDS011;653;51.480;11.992;2023-03-11T14:20:01;3.67;;;3.37;;
1320;SDS011;653;51.480;11.992;2023-03-11T14:22:31;7.23;;;3.80;;
1320;SDS011;653;51.480;11.992;2023-03-11T14:25:01;5.50;;;3.93;;
1320;SDS011;653;51.480;11.992;2023-03-11T14:27:33;5.20;;;3.70;;
1320;SDS011;653;51.480;11.992;2023-03-11T14:29:59;3.97;;;3.67;;
1320;SDS011;653;51.480;11.992;2023-03-11T14:32:29;5.53;;;3.57;;
1320;SDS011;653;51.480;11.992;2023-03-11T14:34:58;4.07;;;3.60;;
1320;SDS011;653;51.480;11.992;2023-03-11T14:37:35;4.80;;;3.73;;
1320;SDS011;653;51.480;11.992;2023-03-11T14:40:02;4.60;;;4.20;;
1320;SDS011;653;51.480;11.992;2023-03-11T14:42:35;5.13;;;3.77;;
1320;SDS011;653;51.480;11.992;2023-03-11T14:45:22;5.00;;;4.40;;
1320;SDS011;653;51.480;11.992;2023-03-11T14:47:55;5.10;;;4.10;;
1320;SDS011;653;51.480;11.992;2023-03-11T14:50:42;4.47;;;3.90;;
1320;SDS011;653;51.480;11.992;2023-03-11T14:55:40;3.70;;;3.40;;
1320;SDS011;653;51.480;11.992;2023-03-11T15:00:41;5.10;;;3.73;;
1320;SDS011;653;51.480;11.992;2023-03-11T15:03:21;4.37;;;3.10;;
1320;SDS011;653;51.480;11.992;2023-03-11T15:06:05;6.10;;;3.50;;
1320;SDS011;653;51.480;11.992;2023-03-11T15:08:36;4.27;;;3.87;;
1320;SDS011;653;51.480;11.992;2023-03-11T15:13:34;3.93;;;3.50;;
1320;SDS011;653;51.480;11.992;2023-03-11T15:16:03;3.93;;;3.60;;
1320;SDS011;653;51.480;11.992;2023-03-11T15:18:50;3.33;;;3.10;;
1320;SDS011;653;51.480;11.992;2023-03-11T15:21:16;7.30;;;3.27;;
1320;SDS011;653;51.480;11.992;2023-03-11T15:23:45;4.53;;;3.10;;
1320;SDS011;653;51.480;11.992;2023-03-11T15:26:17;3.20;;;2.90;;
1320;SDS011;653;51.480;11.992;2023-03-11T15:28:52;3.10;;;2.90;;
1320;SDS011;653;51.480;11.992;2023-03-11T15:31:27;3.63;;;3.07;;
1320;SDS011;653;51.480;11.992;2023-03-11T15:37:19;3.90;;;3.20;;
1320;SDS011;653;51.480;11.992;2023-03-11T15:39:46;3.90;;;3.10;;
1320;SDS011;653;51.480;11.992;2023-03-11T15:42:17;3.40;;;2.80;;
1320;SDS011;653;51.480;11.992;2023-03-11T15:47:45;3.43;;;3.17;;
1320;SDS011;653;51.480;11.992;2023-03-11T15:50:17;9.00;;;2.93;;
1320;SDS011;653;51.480;11.992;2023-03-11T15:52:55;4.20;;;2.80;;
1320;SDS011;653;51.480;11.992;2023-03-11T15:55:23;4.03;;;3.60;;
1320;SDS011;653;51.480;11.992;2023-03-11T15:57:52;5.13;;;4.63;;
1320;SDS011;653;51.480;11.992;2023-03-11T16:00:28;3.07;;;2.70;;
1320;SDS011;653;51.480;11.992;2023-03-11T16:02:53;3.00;;;2.80;;
1320;SDS011;653;51.480;11.992;2023-03-11T16:05:21;3.53;;;3.17;;
1320;SDS011;653;51.480;11.992;2023-03-11T16:08:07;2.87;;;2.57;;
1320;SDS011;653;51.480;11.992;2023-03-11T16:10:33;3.83;;;3.03;;
1320;SDS011;653;51.480;11.992;2023-03-11T16:12:58;3.53;;;2.53;;
1320;SDS011;653;51.480;11.992;2023-03-11T16:15:26;3.20;;;2.90;;
1320;SDS011;653;51.480;11.992;2023-03-11T16:17:57;2.60;;;2.40;;
1320;SDS011;653;51.480;11.992;2023-03-11T16:20:24;2.87;;;2.60;;
1320;SDS011;653;51.480;11.992;2023-03-11T16:22:52;7.27;;;2.80;;
1320;SDS011;653;51.480;11.992;2023-03-11T16:25:20;5.70;;;2.60;;
1320;SDS011;653;51.480;11.992;2023-03-11T16:27:55;2.70;;;2.50;;
1320;SDS011;653;51.480;11.992;2023-03-11T16:30:22;3.97;;;2.67;;
1320;SDS011;653;51.480;11.992;2023-03-11T16:32:49;4.57;;;2.53;;
1320;SDS011;653;51.480;11.992;2023-03-11T16:35:15;3.20;;;2.90;;
1320;SDS011;653;51.480;11.992;2023-03-11T16:37:42;3.70;;;2.53;;
1320;SDS011;653;51.480;11.992;2023-03-11T16:40:15;4.20;;;2.40;;
1320;SDS011;653;51.480;11.992;2023-03-11T16:42:44;3.00;;;2.13;;
1320;SDS011;653;51.480;11.992;2023-03-11T16:45:11;4.77;;;2.50;;
1320;SDS011;653;51.480;11.992;2023-03-11T16:47:41;2.93;;;2.63;;
1320;SDS011;653;51.480;11.992;2023-03-11T16:50:07;6.50;;;3.13;;
1320;SDS011;653;51.480;11.992;2023-03-11T16:52:34;4.23;;;2.93;;
1320;SDS011;653;51.480;11.992;2023-03-11T16:55:08;2.77;;;2.47;;
1320;SDS011;653;51.480;11.992;2023-03-11T16:57:34;4.27;;;2.73;;
1320;SDS011;653;51.480;11.992;2023-03-11T17:00:03;6.20;;;3.00;;
1320;SDS011;653;51.480;11.992;2023-03-11T17:02:33;4.23;;;2.70;;
1320;SDS011;653;51.480;11.992;2023-03-11T17:04:59;2.93;;;2.00;;
1320;SDS011;653;51.480;11.992;2023-03-11T17:07:26;5.83;;;2.97;;
1320;SDS011;653;51.480;11.992;2023-03-11T17:09:52;6.33;;;2.23;;
1320;SDS011;653;51.480;11.992;2023-03-11T17:12:19;2.43;;;2.00;;
1320;SDS011;653;51.480;11.992;2023-03-11T17:14:48;5.80;;;2.47;;
1320;SDS011;653;51.480;11.992;2023-03-11T17:17:15;4.80;;;3.10;;
1320;SDS011;653;51.480;11.992;2023-03-11T17:19:40;6.73;;;3.00;;
1320;SDS011;653;51.480;11.992;2023-03-11T17:22:07;6.57;;;2.93;;
1320;SDS011;653;51.480;11.992;2023-03-11T17:24:33;6.13;;;2.73;;
1320;SDS011;653;51.480;11.992;2023-03-11T17:27:02;3.80;;;2.20;;
1320;SDS011;653;51.480;11.992;2023-03-11T17:29:30;3.00;;;2.07;;
1320;SDS011;653;51.480;11.992;2023-03-11T17:31:55;3.07;;;2.20;;
1320;SDS011;653;51.480;11.992;2023-03-11T17:34:22;5.57;;;2.50;;
1320;SDS011;653;51.480;11.992;2023-03-11T17:36:49;4.63;;;2.43;;
1320;SDS011;653;51.480;11.992;2023-03-11T17:39:15;2.93;;;2.30;;
1320;SDS011;653;51.480;11.992;2023-03-11T17:41:40;3.93;;;2.20;;
1320;SDS011;653;51.480;11.992;2023-03-11T17:44:07;4.27;;;2.23;;
1320;SDS011;653;51.480;11.992;2023-03-11T17:46:33;5.10;;;2.40;;
1320;SDS011;653;51.480;11.992;2023-03-11T17:49:01;3.37;;;2.20;;
1320;SDS011;653;51.480;11.992;2023-03-11T17:51:27;9.87;;;3.07;;
1320;SDS011;653;51.480;11.992;2023-03-11T17:53:53;8.67;;;3.63;;
1320;SDS011;653;51.480;11.992;2023-03-11T17:56:20;5.13;;;2.70;;
1320;SDS011;653;51.480;11.992;2023-03-11T17:58:47;3.97;;;2.53;;
1320;SDS011;653;51.480;11.992;2023-03-11T18:01:14;3.63;;;2.40;;
1320;SDS011;653;51.480;11.992;2023-03-11T18:03:43;2.93;;;2.63;;
1320;SDS011;653;51.480;11.992;2023-03-11T18:06:10;2.60;;;1.90;;
1320;SDS011;653;51.480;11.992;2023-03-11T18:08:37;3.57;;;2.53;;
1320;SDS011;653;51.480;11.992;2023-03-11T18:11:03;7.53;;;4.10;;
1320;SDS011;653;51.480;11.992;2023-03-11T18:13:31;7.03;;;2.93;;
1320;SDS011;653;51.480;11.992;2023-03-11T18:16:07;4.50;;;2.60;;
1320;SDS011;653;51.480;11.992;2023-03-11T18:18:40;5.80;;;2.40;;
1320;SDS011;653;51.480;11.992;2023-03-11T18:21:25;7.87;;;2.70;;
1320;SDS011;653;51.480;11.992;2023-03-11T18:23:53;3.90;;;3.43;;
1320;SDS011;653;51.480;11.992;2023-03-11T18:26:21;6.13;;;2.70;;
1320;SDS011;653;51.480;11.992;2023-03-11T18:28:51;4.80;;;2.90;;
1320;SDS011;653;51.480;11.992;2023-03-11T18:31:18;11.83;;;2.97;;
1320;SDS011;653;51.480;11.992;2023-03-11T18:33:47;6.70;;;3.30;;
1320;SDS011;653;51.480;11.992;2023-03-11T18:36:22;6.67;;;3.40;;
1320;SDS011;653;51.480;11.992;2023-03-11T18:38:52;3.90;;;3.23;;
1320;SDS011;653;51.480;11.992;2023-03-11T18:41:18;5.90;;;4.03;;
1320;SDS011;653;51.480;11.992;2023-03-11T18:43:48;7.03;;;3.03;;
1320;SDS011;653;51.480;11.992;2023-03-11T18:46:20;5.23;;;2.67;;
1320;SDS011;653;51.480;11.992;2023-03-11T18:48:45;5.67;;;2.80;;
1320;SDS011;653;51.480;11.992;2023-03-11T18:51:11;5.87;;;3.20;;
1320;SDS011;653;51.480;11.992;2023-03-11T18:53:41;3.50;;;2.90;;
1320;SDS011;653;51.480;11.992;2023-03-11T18:56:07;3.30;;;2.23;;
1320;SDS011;653;51.480;11.992;2023-03-11T18:58:36;11.03;;;2.93;;
1320;SDS011;653;51.480;11.992;2023-03-11T19:01:02;6.03;;;3.40;;
1320;SDS011;653;51.480;11.992;2023-03-11T19:03:31;4.93;;;2.67;;
1320;SDS011;653;51.480;11.992;2023-03-11T19:05:58;3.80;;;2.60;;
1320;SDS011;653;51.480;11.992;2023-03-11T19:08:24;5.73;;;2.97;;
1320;SDS011;653;51.480;11.992;2023-03-11T19:10:53;7.40;;;3.57;;
1320;SDS011;653;51.480;11.992;2023-03-11T19:13:19;5.73;;;3.87;;
1320;SDS011;653;51.480;11.992;2023-03-11T19:15:46;5.10;;;3.73;;
1320;SDS011;653;51.480;11.992;2023-03-11T19:18:16;6.30;;;3.80;;
1320;SDS011;653;51.480;11.992;2023-03-11T19:20:43;7.80;;;3.83;;
1320;SDS011;653;51.480;11.992;2023-03-11T19:23:08;5.33;;;3.67;;
1320;SDS011;653;51.480;11.992;2023-03-11T19:25:36;9.67;;;4.13;;
1320;SDS011;653;51.480;11.992;2023-03-11T19:28:03;6.90;;;4.00;;
1320;SDS011;653;51.480;11.992;2023-03-11T19:30:29;9.50;;;3.63;;
1320;SDS011;653;51.480;11.992;2023-03-11T19:32:56;8.03;;;4.67;;
1320;SDS011;653;51.480;11.992;2023-03-11T19:35:23;5.80;;;4.00;;
1320;SDS011;653;51.480;11.992;2023-03-11T19:37:51;6.37;;;4.10;;
1320;SDS011;653;51.480;11.992;2023-03-11T19:40:20;5.23;;;3.23;;
1320;SDS011;653;51.480;11.992;2023-03-11T19:42:45;8.17;;;4.03;;
1320;SDS011;653;51.480;11.992;2023-03-11T19:45:11;8.43;;;5.03;;
1320;SDS011;653;51.480;11.992;2023-03-11T19:47:37;5.27;;;4.00;;
1320;SDS011;653;51.480;11.992;2023-03-11T19:50:08;6.90;;;4.30;;
1320;SDS011;653;51.480;11.992;2023-03-11T19:52:34;5.30;;;3.93;;
1320;SDS011;653;51.480;11.992;2023-03-11T19:55:01;6.13;;;3.87;;
1320;SDS011;653;51.480;11.992;2023-03-11T19:57:28;4.80;;;3.93;;
1320;SDS011;653;51.480;11.992;2023-03-11T19:59:54;6.77;;;4.60;;
1320;SDS011;653;51.480;11.992;2023-03-11T20:02:21;6.77;;;3.47;;
1320;SDS011;653;51.480;11.992;2023-03-11T20:04:48;4.80;;;3.57;;
1320;SDS011;653;51.480;11.992;2023-03-11T20:07:14;5.33;;;3.63;;
1320;SDS011;653;51.480;11.992;2023-03-11T20:09:40;7.20;;;4.60;;
1320;SDS011;653;51.480;11.992;2023-03-11T20:12:06;7.77;;;4.50;;
1320;SDS011;653;51.480;11.992;2023-03-11T20:14:33;7.27;;;4.60;;
1320;SDS011;653;51.480;11.992;2023-03-11T20:17:00;10.43;;;4.40;;
1320;SDS011;653;51.480;11.992;2023-03-11T20:19:26;7.80;;;3.80;;
1320;SDS011;653;51.480;11.992;2023-03-11T20:21:51;6.63;;;3.90;;
1320;SDS011;653;51.480;11.992;2023-03-11T20:24:19;8.10;;;4.57;;
1320;SDS011;653;51.480;11.992;2023-03-11T20:26:46;5.90;;;4.00;;
1320;SDS011;653;51.480;11.992;2023-03-11T20:29:12;5.40;;;3.23;;
1320;SDS011;653;51.480;11.992;2023-03-11T20:31:39;9.40;;;4.33;;
1320;SDS011;653;51.480;11.992;2023-03-11T20:34:05;7.67;;;3.67;;
1320;SDS011;653;51.480;11.992;2023-03-11T20:36:31;4.23;;;3.13;;
1320;SDS011;653;51.480;11.992;2023-03-11T20:38:57;4.10;;;3.17;;
1320;SDS011;653;51.480;11.992;2023-03-11T20:41:24;5.43;;;4.10;;
1320;SDS011;653;51.480;11.992;2023-03-11T20:43:53;6.53;;;4.57;;
1320;SDS011;653;51.480;11.992;2023-03-11T20:46:20;7.57;;;3.47;;
1320;SDS011;653;51.480;11.992;2023-03-11T20:48:46;6.10;;;3.40;;
1320;SDS011;653;51.480;11.992;2023-03-11T20:51:14;9.13;;;3.83;;
1320;SDS011;653;51.480;11.992;2023-03-11T20:53:45;4.63;;;3.57;;
1320;SDS011;653;51.480;11.992;2023-03-11T20:56:15;6.67;;;3.47;;
1320;SDS011;653;51.480;11.992;2023-03-11T20:58:44;4.97;;;3.30;;
1320;SDS011;653;51.480;11.992;2023-03-11T21:01:14;4.40;;;3.10;;
1320;SDS011;653;51.480;11.992;2023-03-11T21:03:46;4.63;;;2.60;;
1320;SDS011;653;51.480;11.992;2023-03-11T21:08:43;4.60;;;3.03;;
1320;SDS011;653;51.480;11.992;2023-03-11T21:11:09;8.20;;;3.10;;
1320;SDS011;653;51.480;11.992;2023-03-11T21:13:35;5.10;;;3.00;;
1320;SDS011;653;51.480;11.992;2023-03-11T21:16:02;4.87;;;3.23;;
1320;SDS011;653;51.480;11.992;2023-03-11T21:18:29;4.13;;;3.20;;
1320;SDS011;653;51.480;11.992;2023-03-11T21:20:57;5.53;;;2.80;;
1320;SDS011;653;51.480;11.992;2023-03-11T21:23:23;4.60;;;3.00;;
1320;SDS011;653;51.480;11.992;2023-03-11T21:26:00;4.80;;;3.20;;
1320;SDS011;653;51.480;11.992;2023-03-11T21:28:28;8.10;;;3.70;;
1320;SDS011;653;51.480;11.992;2023-03-11T21:31:02;7.20;;;3.37;;
1320;SDS011;653;51.480;11.992;2023-03-11T21:33:52;4.30;;;3.23;;
1320;SDS011;653;51.480;11.992;2023-03-11T21:36:21;6.50;;;3.13;;
1320;SDS011;653;51.480;11.992;2023-03-11T21:38:48;3.43;;;3.10;;
1320;SDS011;653;51.480;11.992;2023-03-11T21:41:24;7.30;;;3.30;;
1320;SDS011;653;51.480;11.992;2023-03-11T21:43:51;5.33;;;2.60;;
1320;SDS011;653;51.480;11.992;2023-03-11T21:46:18;5.57;;;3.47;;
1320;SDS011;653;51.480;11.992;2023-03-11T21:48:47;6.53;;;3.60;;
1320;SDS011;653;51.480;11.992;2023-03-11T21:51:13;5.57;;;3.30;;
1320;SDS011;653;51.480;11.992;2023-03-11T21:53:43;10.43;;;4.00;;
1320;SDS011;653;51.480;11.992;2023-03-11T21:56:10;7.30;;;3.20;;
1320;SDS011;653;51.480;11.992;2023-03-11T21:58:38;4.90;;;3.67;;
1320;SDS011;653;51.480;11.992;2023-03-11T22:01:05;3.57;;;2.73;;
1320;SDS011;653;51.480;11.992;2023-03-11T22:03:32;5.00;;;3.50;;
1320;SDS011;653;51.480;11.992;2023-03-11T22:06:05;5.63;;;4.00;;
1320;SDS011;653;51.480;11.992;2023-03-11T22:08:33;12.00;;;4.00;;
1320;SDS011;653;51.480;11.992;2023-03-11T22:11:00;4.73;;;3.20;;
1320;SDS011;653;51.480;11.992;2023-03-11T22:13:27;5.80;;;3.03;;
1320;SDS011;653;51.480;11.992;2023-03-11T22:15:54;5.80;;;3.93;;
1320;SDS011;653;51.480;11.992;2023-03-11T22:18:27;6.00;;;3.87;;
1320;SDS011;653;51.480;11.992;2023-03-11T22:20:57;5.20;;;3.53;;
1320;SDS011;653;51.480;11.992;2023-03-11T22:23:26;5.00;;;3.53;;
1320;SDS011;653;51.480;11.992;2023-03-11T22:25:54;9.17;;;4.40;;
1320;SDS011;653;51.480;11.992;2023-03-11T22:28:21;5.17;;;3.30;;
1320;SDS011;653;51.480;11.992;2023-03-11T22:30:48;5.37;;;3.47;;
1320;SDS011;653;51.480;11.992;2023-03-11T22:33:14;4.10;;;3.10;;
1320;SDS011;653;51.480;11.992;2023-03-11T22:35:51;6.07;;;3.43;;
1320;SDS011;653;51.480;11.992;2023-03-11T22:38:19;6.43;;;3.20;;
1320;SDS011;653;51.480;11.992;2023-03-11T22:40:45;6.13;;;3.00;;
1320;SDS011;653;51.480;11.992;2023-03-11T22:43:12;5.47;;;3.80;;
1320;SDS011;653;51.480;11.992;2023-03-11T22:45:38;6.37;;;3.40;;
1320;SDS011;653;51.480;11.992;2023-03-11T22:48:07;4.43;;;3.20;;
1320;SDS011;653;51.480;11.992;2023-03-11T22:50:34;6.20;;;3.63;;
1320;SDS011;653;51.480;11.992;2023-03-11T22:52:59;7.13;;;3.50;;
1320;SDS011;653;51.480;11.992;2023-03-11T22:55:26;6.90;;;3.30;;
1320;SDS011;653;51.480;11.992;2023-03-11T22:57:52;4.90;;;3.20;;
1320;SDS011;653;51.480;11.992;2023-03-11T23:00:20;5.40;;;3.20;;
1320;SDS011;653;51.480;11.992;2023-03-11T23:02:51;5.70;;;2.50;;
1320;SDS011;653;51.480;11.992;2023-03-11T23:05:21;5.00;;;3.00;;
1320;SDS011;653;51.480;11.992;2023-03-11T23:07:51;5.57;;;2.67;;
1320;SDS011;653;51.480;11.992;2023-03-11T23:10:20;5.73;;;2.43;;
1320;SDS011;653;51.480;11.992;2023-03-11T23:12:46;5.30;;;3.13;;
1320;SDS011;653;51.480;11.992;2023-03-11T23:15:16;7.50;;;2.40;;
1320;SDS011;653;51.480;11.992;2023-03-11T23:17:44;2.77;;;2.37;;
1320;SDS011;653;51.480;11.992;2023-03-11T23:20:14;3.13;;;2.33;;
1320;SDS011;653;51.480;11.992;2023-03-11T23:22:43;8.37;;;2.90;;
1320;SDS011;653;51.480;11.992;2023-03-11T23:25:11;6.30;;;2.20;;
1320;SDS011;653;51.480;11.992;2023-03-11T23:27:39;2.30;;;1.70;;
1320;SDS011;653;51.480;11.992;2023-03-11T23:30:07;4.07;;;2.20;;
1320;SDS011;653;51.480;11.992;2023-03-11T23:32:37;4.23;;;1.80;;
1320;SDS011;653;51.480;11.992;2023-03-11T23:35:03;3.33;;;2.37;;
1320;SDS011;653;51.480;11.992;2023-03-11T23:37:32;4.50;;;2.43;;
1320;SDS011;653;51.480;11.992;2023-03-11T23:40:00;9.47;;;2.83;;
1320;SDS011;653;51.480;11.992;2023-03-11T23:42:27;6.47;;;2.47;;
1320;SDS011;653;51.480;11.992;2023-03-11T23:44:53;3.30;;;2.13;;
1320;SDS011;653;51.480;11.992;2023-03-11T23:47:18;3.63;;;2.43;;
1320;SDS011;653;51.480;11.992;2023-03-11T23:49:47;6.00;;;1.87;;
1320;SDS011;653;51.480;11.992;2023-03-11T23:52:12;4.80;;;2.07;;
1320;SDS011;653;51.480;11.992;2023-03-11T23:54:39;5.23;;;2.43;;
1320;SDS011;653;51.480;11.992;2023-03-11T23:57:06;4.80;;;2.50;;
1320;SDS011;653;51.480;11.992;2023-03-11T23:59:33;4.20;;;2.30;;
